createdAt,value
2018-12-18T00:01:49.344Z,101998.05
2018-12-18T00:04:53.577Z,101996.70
2018-12-18T00:07:57.823Z,101998.05
2018-12-18T00:11:03.298Z,101989.17
2018-12-18T00:14:07.534Z,101987.45
2018-12-18T00:17:11.772Z,101984.77
2018-12-18T00:20:16.028Z,101990.99
2018-12-18T00:23:20.243Z,101989.17
2018-12-18T00:26:24.628Z,101981.95
2018-12-18T00:29:28.818Z,101977.09
2018-12-18T00:32:33.027Z,101984.00
2018-12-18T00:35:37.239Z,101988.88
2018-12-18T00:38:41.447Z,101987.02
2018-12-18T00:41:45.845Z,101980.17
2018-12-18T00:44:50.028Z,101970.15
2018-12-18T00:47:54.251Z,101968.81
2018-12-18T00:50:58.464Z,101971.83
2018-12-18T00:54:02.742Z,101972.49
2018-12-18T00:57:06.953Z,101961.91
2018-12-18T01:00:11.516Z,101967.95
2018-12-18T01:03:15.727Z,101971.64
2018-12-18T01:06:20.108Z,101979.06
2018-12-18T01:09:24.461Z,101985.95
2018-12-18T01:12:28.750Z,101981.45
2018-12-18T01:15:32.968Z,101983.50
2018-12-18T01:18:37.215Z,101981.50
2018-12-18T01:21:41.432Z,101986.95
2018-12-18T01:24:45.696Z,101987.92
2018-12-18T01:27:49.907Z,101988.44
2018-12-18T01:30:55.040Z,102000.52
2018-12-18T01:33:59.531Z,102004.53
2018-12-18T01:37:03.864Z,102002.83
2018-12-18T01:40:08.245Z,101997.11
2018-12-18T01:43:12.528Z,101992.95
2018-12-18T01:46:16.767Z,101993.80
2018-12-18T01:49:20.999Z,101991.31
2018-12-18T01:52:25.236Z,101992.17
2018-12-18T01:55:29.579Z,101999.56
2018-12-18T01:58:33.799Z,101999.08
2018-12-18T02:01:38.017Z,102000.27
2018-12-18T02:04:42.231Z,101995.39
2018-12-18T02:07:46.494Z,101994.42
2018-12-18T02:10:50.723Z,101993.41
2018-12-18T02:13:55.015Z,101992.93
2018-12-18T02:16:59.283Z,101996.47
2018-12-18T02:20:03.927Z,101999.49
2018-12-18T02:23:08.248Z,102002.03
2018-12-18T02:26:12.565Z,101995.66
2018-12-18T02:29:16.815Z,102001.25
2018-12-18T02:32:21.214Z,102000.25
2018-12-18T02:35:25.505Z,101999.77
2018-12-18T02:38:29.717Z,101995.73
2018-12-18T02:41:34.108Z,102000.97
2018-12-18T02:44:38.331Z,102002.98
2018-12-18T02:47:42.551Z,101998.81
2018-12-18T02:50:46.900Z,102008.58
2018-12-18T02:53:51.219Z,102003.21
2018-12-18T02:56:55.427Z,101993.52
2018-12-18T02:59:59.664Z,101995.20
2018-12-18T03:03:03.953Z,101994.23
2018-12-18T03:06:08.297Z,101997.73
2018-12-18T03:09:12.547Z,101991.88
2018-12-18T03:12:16.784Z,101991.40
2018-12-18T03:15:21.364Z,101996.10
2018-12-18T03:18:25.605Z,101992.59
2018-12-18T03:21:29.824Z,101997.81
2018-12-18T03:24:34.121Z,101995.95
2018-12-18T03:27:38.430Z,101994.61
2018-12-18T03:30:42.657Z,101991.30
2018-12-18T03:33:46.900Z,101992.30
2018-12-18T03:36:51.159Z,101994.98
2018-12-18T03:39:55.508Z,101998.16
2018-12-18T03:42:59.805Z,102001.70
2018-12-18T03:46:04.099Z,102005.06
2018-12-18T03:49:08.439Z,102008.60
2018-12-18T03:52:12.663Z,102011.14
2018-12-18T03:55:16.892Z,102011.52
2018-12-18T03:58:21.106Z,102009.02
2018-12-18T04:01:25.349Z,102015.24
2018-12-18T04:04:35.524Z,102013.23
2018-12-18T04:07:36.427Z,102010.92
2018-12-18T04:10:40.742Z,101998.47
2018-12-18T04:13:45.023Z,102007.23
2018-12-18T04:16:49.351Z,102005.74
2018-12-18T04:19:53.680Z,102010.96
2018-12-18T04:22:57.892Z,102006.45
2018-12-18T04:26:02.186Z,102013.84
2018-12-18T04:29:06.400Z,102008.47
2018-12-18T04:32:10.651Z,102008.31
2018-12-18T04:35:14.936Z,102010.38
2018-12-18T04:38:19.178Z,102010.74
2018-12-18T04:41:23.421Z,102015.11
2018-12-18T04:44:27.615Z,102015.97
2018-12-18T04:47:31.939Z,102016.64
2018-12-18T04:50:36.120Z,102023.21
2018-12-18T04:53:40.396Z,102020.89
2018-12-18T04:56:44.578Z,102025.59
2018-12-18T04:59:48.866Z,102023.63
2018-12-18T05:02:53.086Z,102019.93
2018-12-18T05:05:57.523Z,102018.32
2018-12-18T05:09:01.858Z,102026.37
2018-12-18T05:12:06.287Z,102023.39
2018-12-18T05:15:10.639Z,102010.94
2018-12-18T05:18:14.932Z,102022.39
2018-12-18T05:21:19.226Z,102023.09
2018-12-18T05:24:23.537Z,102021.61
2018-12-18T05:27:27.739Z,102025.19
2018-12-18T05:30:32.006Z,102027.13
2018-12-18T05:33:36.256Z,102029.33
2018-12-18T05:36:40.684Z,102027.13
2018-12-18T05:39:44.900Z,102030.52
2018-12-18T05:42:49.124Z,102024.99
2018-12-18T05:45:53.382Z,102029.02
2018-12-18T05:48:57.620Z,102032.39
2018-12-18T05:52:01.839Z,102032.09
2018-12-18T05:55:07.701Z,102032.94
2018-12-18T05:58:12.120Z,102032.30
2018-12-18T06:01:16.331Z,102032.34
2018-12-18T06:04:20.571Z,102034.09
2018-12-18T06:07:24.911Z,102040.05
2018-12-18T06:10:29.187Z,102040.95
2018-12-18T06:13:33.390Z,102042.05
2018-12-18T06:16:37.639Z,102042.23
2018-12-18T06:19:41.841Z,102033.81
2018-12-18T06:22:46.078Z,102040.98
2018-12-18T06:25:50.352Z,102049.53
2018-12-18T06:28:54.566Z,102054.50
2018-12-18T06:31:58.764Z,102054.05
2018-12-18T06:35:10.055Z,102057.11
2018-12-18T06:38:09.308Z,102052.39
2018-12-18T06:41:13.601Z,102053.42
2018-12-18T06:44:17.879Z,102061.66
2018-12-18T06:47:22.088Z,102050.58
2018-12-18T06:50:26.287Z,102052.30
2018-12-18T06:53:30.559Z,102063.25
2018-12-18T06:56:34.906Z,102068.39
2018-12-18T06:59:39.198Z,102077.55
2018-12-18T07:02:43.482Z,102077.89
2018-12-18T07:05:47.701Z,102072.01
2018-12-18T07:08:51.930Z,102074.00
2018-12-18T07:11:56.137Z,102077.87
2018-12-18T07:15:00.424Z,102073.52
2018-12-18T07:18:04.708Z,102077.17
2018-12-18T07:21:08.958Z,102091.50
2018-12-18T07:24:14.186Z,102089.45
2018-12-18T07:27:18.827Z,102085.57
2018-12-18T07:30:23.132Z,102095.00
2018-12-18T07:33:27.512Z,102095.80
2018-12-18T07:36:31.884Z,102099.84
2018-12-18T07:39:36.131Z,102099.83
2018-12-18T07:42:40.355Z,102099.98
2018-12-18T07:45:44.586Z,102101.17
2018-12-18T07:48:48.786Z,102110.05
2018-12-18T07:51:53.090Z,102106.66
2018-12-18T07:54:57.415Z,102108.69
2018-12-18T07:58:01.637Z,102108.69
2018-12-18T08:01:05.887Z,102117.08
2018-12-18T08:04:10.241Z,102119.41
2018-12-18T08:07:14.487Z,102112.98
2018-12-18T08:10:18.844Z,102121.73
2018-12-18T08:13:23.201Z,102122.53
2018-12-18T08:16:27.427Z,102122.17
2018-12-18T08:19:31.671Z,102135.78
2018-12-18T08:22:35.982Z,102127.70
2018-12-18T08:25:40.289Z,102133.25
2018-12-18T08:28:44.672Z,102142.67
2018-12-18T08:31:48.883Z,102143.53
2018-12-18T08:34:53.248Z,102143.86
2018-12-18T08:37:57.547Z,102136.95
2018-12-18T08:41:01.773Z,102142.34
2018-12-18T08:44:06.079Z,102140.84
2018-12-18T08:47:10.302Z,102141.17
2018-12-18T08:50:14.592Z,102132.61
2018-12-18T08:53:18.799Z,102136.16
2018-12-18T08:56:23.264Z,102140.92
2018-12-18T08:59:27.472Z,102132.87
2018-12-18T09:02:31.769Z,102136.11
2018-12-18T09:05:36.095Z,102134.94
2018-12-18T09:08:40.335Z,102123.83
2018-12-18T09:11:44.644Z,102117.80
2018-12-18T09:14:54.255Z,102114.80
2018-12-18T09:17:58.583Z,102115.50
2018-12-18T09:21:02.875Z,102111.30
2018-12-18T09:24:07.149Z,102111.63
2018-12-18T09:27:11.516Z,102109.27
2018-12-18T09:30:15.861Z,102102.75
2018-12-18T09:33:20.093Z,102109.16
2018-12-18T09:36:24.408Z,102122.32
2018-12-18T09:39:33.816Z,102114.94
2018-12-18T09:42:43.238Z,102115.97
2018-12-18T09:45:47.447Z,102112.59
2018-12-18T09:48:51.671Z,102118.34
2018-12-18T09:51:55.924Z,102121.05
2018-12-18T09:55:00.112Z,102123.58
2018-12-18T09:58:08.502Z,102123.42
2018-12-18T10:01:12.963Z,102128.45
2018-12-18T10:04:17.241Z,102126.95
2018-12-18T10:07:21.643Z,102124.09
2018-12-18T10:10:25.879Z,102118.05
2018-12-18T10:13:30.168Z,102116.38
2018-12-18T10:16:34.480Z,102116.22
2018-12-18T10:19:38.818Z,102109.97
2018-12-18T10:22:43.115Z,102109.64
2018-12-18T10:25:47.423Z,102109.27
2018-12-18T10:28:51.709Z,102100.05
2018-12-18T10:31:55.942Z,102100.70
2018-12-18T10:35:00.178Z,102105.55
2018-12-18T10:38:11.151Z,102097.29
2018-12-18T10:41:15.440Z,102088.02
2018-12-18T10:44:19.663Z,102094.05
2018-12-18T10:47:23.945Z,102096.08
2018-12-18T10:50:28.155Z,102093.88
2018-12-18T10:53:32.376Z,102100.77
2018-12-18T10:56:36.682Z,102097.87
2018-12-18T10:59:41.007Z,102094.69
2018-12-18T11:02:45.585Z,102096.89
2018-12-18T11:05:49.783Z,102084.92
2018-12-18T11:08:54.082Z,102084.61
2018-12-18T11:11:58.371Z,102085.59
2018-12-18T11:15:02.682Z,102078.20
2018-12-18T11:18:06.970Z,102079.92
2018-12-18T11:21:11.340Z,102074.86
2018-12-18T11:24:15.747Z,102062.41
2018-12-18T11:27:20.119Z,102064.24
2018-12-18T11:30:24.342Z,102066.45
2018-12-18T11:33:28.544Z,102065.77
2018-12-18T11:36:32.783Z,102061.56
2018-12-18T11:39:37.115Z,102053.69
2018-12-18T11:42:41.363Z,102056.22
2018-12-18T11:45:45.611Z,102060.93
2018-12-18T11:48:49.824Z,102062.11
2018-12-18T11:51:54.055Z,102049.83
2018-12-18T11:54:58.292Z,102044.31
2018-12-18T11:58:02.498Z,102044.16
2018-12-18T12:01:07.281Z,102038.77
2018-12-18T12:04:11.511Z,102037.26
2018-12-18T12:07:15.750Z,102036.23
2018-12-18T12:10:20.023Z,102040.61
2018-12-18T12:13:24.339Z,102046.86
2018-12-18T12:16:28.591Z,102037.59
2018-12-18T12:19:32.847Z,102042.33
2018-12-18T12:22:37.205Z,102041.80
2018-12-18T12:25:41.434Z,102032.38
2018-12-18T12:28:45.745Z,102030.04
2018-12-18T12:31:49.949Z,102034.58
2018-12-18T12:34:54.247Z,102034.41
2018-12-18T12:37:58.456Z,102030.20
2018-12-18T12:41:02.739Z,102026.50
2018-12-18T12:44:06.957Z,102026.17
2018-12-18T12:47:17.523Z,102033.28
2018-12-18T12:50:21.903Z,102029.56
2018-12-18T12:53:26.207Z,102019.48
2018-12-18T12:56:30.443Z,102026.05
2018-12-18T12:59:34.660Z,102021.84
2018-12-18T13:02:38.888Z,102024.88
2018-12-18T13:05:43.226Z,102013.44
2018-12-18T13:08:47.532Z,102014.62
2018-12-18T13:11:51.836Z,102017.16
2018-12-18T13:14:56.054Z,102016.14
2018-12-18T13:18:00.297Z,102018.02
2018-12-18T13:21:04.675Z,102012.63
2018-12-18T13:24:08.900Z,102000.98
2018-12-18T13:27:13.290Z,101989.87
2018-12-18T13:30:17.578Z,101991.72
2018-12-18T13:33:21.824Z,102000.16
2018-12-18T13:36:26.346Z,101990.07
2018-12-18T13:39:30.635Z,102002.04
2018-12-18T13:42:35.092Z,101998.48
2018-12-18T13:45:39.309Z,101992.08
2018-12-18T13:48:43.549Z,102005.06
2018-12-18T13:51:47.775Z,102006.41
2018-12-18T13:54:52.228Z,102000.53
2018-12-18T13:57:56.462Z,101982.64
2018-12-18T14:01:00.718Z,101981.30
2018-12-18T14:04:05.094Z,101977.25
2018-12-18T14:07:09.331Z,101974.55
2018-12-18T14:10:13.635Z,101973.53
2018-12-18T14:13:17.855Z,101968.14
2018-12-18T14:16:22.189Z,101980.93
2018-12-18T14:19:26.419Z,101965.77
2018-12-18T14:22:30.675Z,101961.40
2018-12-18T14:25:34.892Z,101965.44
2018-12-18T14:28:39.202Z,101967.94
2018-12-18T14:31:43.436Z,101968.47
2018-12-18T14:34:47.723Z,101968.47
2018-12-18T14:37:52.045Z,101957.16
2018-12-18T14:40:56.255Z,101950.26
2018-12-18T14:44:00.483Z,101943.68
2018-12-18T14:47:04.873Z,101953.64
2018-12-18T14:50:09.387Z,101944.20
2018-12-18T14:53:13.567Z,101941.52
2018-12-18T14:56:17.840Z,101934.41
2018-12-18T14:59:22.214Z,101939.80
2018-12-18T15:02:26.413Z,101931.05
2018-12-18T15:05:30.718Z,101935.92
2018-12-18T15:08:35.075Z,101942.86
2018-12-18T15:11:39.311Z,101932.23
2018-12-18T15:14:43.509Z,101923.98
2018-12-18T15:17:47.948Z,101923.50
2018-12-18T15:20:52.166Z,101934.28
2018-12-18T15:23:56.363Z,101932.41
2018-12-18T15:27:00.726Z,101928.56
2018-12-18T15:30:06.088Z,101928.39
2018-12-18T15:33:10.411Z,101936.31
2018-12-18T15:36:14.639Z,101944.23
2018-12-18T15:39:18.851Z,101948.97
2018-12-18T15:42:23.160Z,101957.72
2018-12-18T15:45:27.367Z,101958.58
2018-12-18T15:48:31.604Z,101954.86
2018-12-18T15:51:35.938Z,101940.03
2018-12-18T15:54:40.266Z,101948.81
2018-12-18T15:57:44.517Z,101950.65
2018-12-18T16:00:48.788Z,101944.60
2018-12-18T16:03:53.106Z,101955.55
2018-12-18T16:06:57.307Z,101948.97
2018-12-18T16:10:01.539Z,101951.17
2018-12-18T16:13:05.737Z,101945.42
2018-12-18T16:20:04.563Z,101938.19
2018-12-18T16:23:08.892Z,101936.34
2018-12-18T16:26:13.215Z,101931.11
2018-12-18T16:29:17.462Z,101929.59
2018-12-18T16:32:21.889Z,101930.95
2018-12-18T16:35:26.195Z,101938.22
2018-12-18T16:38:30.516Z,101935.69
2018-12-18T16:41:34.812Z,101944.95
2018-12-18T16:44:39.023Z,101927.59
2018-12-18T16:47:43.295Z,101921.67
2018-12-18T16:50:47.590Z,101924.20
2018-12-18T16:53:51.888Z,101918.32
2018-12-18T16:56:56.162Z,101907.70
2018-12-18T17:00:00.370Z,101897.27
2018-12-18T17:03:04.647Z,101886.29
2018-12-18T17:06:09.099Z,101883.10
2018-12-18T17:09:13.324Z,101881.75
2018-12-18T17:12:17.630Z,101887.80
2018-12-18T17:15:21.852Z,101883.76
2018-12-18T17:18:26.049Z,101900.30
2018-12-18T17:21:30.292Z,101901.28
2018-12-18T17:24:34.522Z,101904.67
2018-12-18T17:27:38.735Z,101897.24
2018-12-18T17:30:42.962Z,101883.92
2018-12-18T17:33:47.179Z,101881.56
2018-12-18T17:36:51.440Z,101882.39
2018-12-18T17:39:56.300Z,101877.52
2018-12-18T17:43:00.492Z,101873.64
2018-12-18T17:46:04.907Z,101871.94
2018-12-18T17:49:14.779Z,101878.67
2018-12-18T17:52:19.000Z,101889.98
2018-12-18T17:55:23.239Z,101891.17
2018-12-18T17:58:27.468Z,101890.81
2018-12-18T18:01:31.807Z,101888.97
2018-12-18T18:04:36.062Z,101891.34
2018-12-18T18:07:43.030Z,101888.64
2018-12-18T18:10:46.644Z,101885.95
2018-12-18T18:13:50.855Z,101883.08
2018-12-18T18:16:55.219Z,101875.32
2018-12-18T18:19:59.797Z,101882.58
2018-12-18T18:23:04.044Z,101876.66
2018-12-18T18:26:08.944Z,101873.80
2018-12-18T18:29:13.151Z,101861.66
2018-12-18T18:32:17.388Z,101859.33
2018-12-18T18:35:21.746Z,101856.27
2018-12-18T18:38:26.035Z,101859.50
2018-12-18T18:41:30.323Z,101848.02
2018-12-18T18:44:34.578Z,101846.02
2018-12-18T18:47:38.954Z,101833.52
2018-12-18T18:50:43.179Z,101833.03
2018-12-18T18:53:47.434Z,101834.20
2018-12-18T18:56:51.710Z,101831.19
2018-12-18T18:59:55.962Z,101828.48
2018-12-18T19:03:00.295Z,101822.07
2018-12-18T19:06:04.767Z,101809.94
2018-12-18T19:09:09.795Z,101810.27
2018-12-18T19:12:14.039Z,101799.66
2018-12-18T19:15:18.337Z,101794.44
2018-12-18T19:18:22.583Z,101782.13
2018-12-18T19:21:26.982Z,101775.58
2018-12-18T19:24:31.199Z,101773.88
2018-12-18T19:27:35.456Z,101772.17
2018-12-18T19:30:39.686Z,101765.96
2018-12-18T19:33:43.916Z,101763.24
2018-12-18T19:36:48.306Z,101760.88
2018-12-18T19:39:52.825Z,101748.26
2018-12-18T19:42:57.036Z,101753.97
2018-12-18T19:46:01.255Z,101762.59
2018-12-18T19:49:05.648Z,101755.00
2018-12-18T19:52:09.956Z,101754.16
2018-12-18T19:55:14.468Z,101753.31
2018-12-18T19:58:18.695Z,101745.74
2018-12-18T20:01:22.940Z,101736.97
2018-12-18T20:04:35.470Z,101735.30
2018-12-18T20:07:39.839Z,101745.55
2018-12-18T20:10:44.155Z,101743.02
2018-12-18T20:13:48.377Z,101741.84
2018-12-18T20:16:52.596Z,101728.05
2018-12-18T20:19:56.786Z,101726.69
2018-12-18T20:23:01.031Z,101716.25
2018-12-18T20:26:06.307Z,101711.02
2018-12-18T20:29:10.555Z,101706.30
2018-12-18T20:32:14.808Z,101701.91
2018-12-18T20:35:19.127Z,101703.42
2018-12-18T20:38:23.368Z,101699.03
2018-12-18T20:41:27.578Z,101688.27
2018-12-18T20:44:31.911Z,101692.28
2018-12-18T20:47:36.222Z,101688.08
2018-12-18T20:50:40.423Z,101689.59
2018-12-18T20:53:44.667Z,101683.69
2018-12-18T20:56:48.955Z,101690.42
2018-12-18T20:59:53.211Z,101691.75
2018-12-18T21:02:57.422Z,101686.20
2018-12-18T21:06:01.735Z,101685.35
2018-12-18T21:09:09.323Z,101683.81
2018-12-18T21:12:13.576Z,101686.50
2018-12-18T21:15:17.811Z,101681.61
2018-12-18T21:18:22.060Z,101668.48
2018-12-18T21:21:26.383Z,101672.00
2018-12-18T21:24:30.641Z,101677.71
2018-12-18T21:27:34.875Z,101672.46
2018-12-18T21:30:39.242Z,101669.11
2018-12-18T21:33:43.559Z,101666.75
2018-12-18T21:36:47.912Z,101661.86
2018-12-18T21:39:52.120Z,101654.11
2018-12-18T21:42:56.340Z,101653.92
2018-12-18T21:46:00.586Z,101650.86
2018-12-18T21:49:04.975Z,101657.92
2018-12-18T21:52:09.180Z,101655.72
2018-12-18T21:55:13.376Z,101663.09
2018-12-18T21:58:17.678Z,101665.78
2018-12-18T22:01:21.884Z,101673.36
2018-12-18T22:04:26.104Z,101665.09
2018-12-18T22:07:30.338Z,101652.81
2018-12-18T22:10:34.559Z,101652.48
2018-12-18T22:13:38.807Z,101657.34
2018-12-18T22:16:42.995Z,101655.46
2018-12-18T22:19:47.275Z,101646.38
2018-12-18T22:22:51.503Z,101647.23
2018-12-18T22:25:55.714Z,101649.39
2018-12-18T22:28:59.911Z,101642.98
2018-12-18T22:32:04.115Z,101639.28
2018-12-18T22:35:08.463Z,101637.94
2018-12-18T22:38:12.766Z,101638.59
2018-12-18T22:41:17.062Z,101637.72
2018-12-18T22:44:21.281Z,101625.63
2018-12-18T22:47:25.619Z,101625.79
2018-12-18T22:50:29.826Z,101618.53
2018-12-18T22:53:34.209Z,101611.81
2018-12-18T22:56:38.428Z,101611.98
2018-12-18T22:59:42.747Z,101606.92
2018-12-18T23:02:46.988Z,101607.78
2018-12-18T23:05:51.273Z,101605.05
2018-12-18T23:08:55.614Z,101592.13
2018-12-18T23:11:59.924Z,101578.66
2018-12-18T23:15:04.514Z,101567.58
2018-12-18T23:18:08.767Z,101550.93
2018-12-18T23:21:13.059Z,101557.16
2018-12-18T23:24:17.382Z,101547.06
2018-12-18T23:27:21.632Z,101533.09
2018-12-18T23:30:26.009Z,101528.05
2018-12-18T23:33:30.247Z,101512.25
2018-12-18T23:36:34.473Z,101503.33
2018-12-18T23:39:38.795Z,101499.83
2018-12-18T23:42:43.022Z,101486.02
2018-12-18T23:45:47.324Z,101481.63
2018-12-18T23:48:51.639Z,101484.84
2018-12-18T23:51:55.887Z,101482.81
2018-12-18T23:55:00.103Z,101484.31
2018-12-18T23:58:04.386Z,101479.80
